createdAt,value
2018-07-22T00:00:10.993Z,19.70
2018-07-22T00:02:38.604Z,20.17
2018-07-22T00:05:05.510Z,20.97
2018-07-22T00:07:33.315Z,22.93
2018-07-22T00:10:00.165Z,26.07
2018-07-22T00:12:27.010Z,22.83
2018-07-22T00:14:54.104Z,26.73
2018-07-22T00:17:20.973Z,29.33
2018-07-22T00:19:48.572Z,34.07
2018-07-22T00:22:15.546Z,32.10
2018-07-22T00:24:42.445Z,33.97
2018-07-22T00:27:09.304Z,38.03
2018-07-22T00:29:36.257Z,41.43
2018-07-22T00:32:03.187Z,40.03
2018-07-22T00:34:30.069Z,41.33
2018-07-22T00:36:57.016Z,40.27
2018-07-22T00:39:23.877Z,38.63
2018-07-22T00:41:50.729Z,39.00
2018-07-22T00:44:18.402Z,37.70
2018-07-22T00:46:45.304Z,40.70
2018-07-22T00:49:12.248Z,41.60
2018-07-22T00:51:39.116Z,38.90
2018-07-22T00:54:05.979Z,40.00
2018-07-22T00:56:33.669Z,37.70
2018-07-22T00:59:00.518Z,37.67
2018-07-22T01:01:27.524Z,35.50
2018-07-22T01:03:54.364Z,35.10
2018-07-22T01:06:21.236Z,35.07
2018-07-22T01:08:48.317Z,37.90
2018-07-22T01:11:15.211Z,33.73
2018-07-22T01:13:42.957Z,35.80
2018-07-22T01:16:09.820Z,36.80
2018-07-22T01:18:37.421Z,36.40
2018-07-22T01:21:04.341Z,35.50
2018-07-22T01:23:31.932Z,34.20
2018-07-22T01:25:58.888Z,36.13
2018-07-22T01:28:25.753Z,36.53
2018-07-22T01:30:52.625Z,35.47
2018-07-22T01:33:20.360Z,35.37
2018-07-22T01:35:47.217Z,38.27
2018-07-22T01:38:14.136Z,35.67
2018-07-22T01:40:40.981Z,35.97
2018-07-22T01:43:07.993Z,39.03
2018-07-22T01:45:34.865Z,35.70
2018-07-22T01:48:01.742Z,35.27
2018-07-22T01:50:28.678Z,34.17
2018-07-22T01:52:55.520Z,33.53
2018-07-22T01:55:22.368Z,31.87
2018-07-22T01:57:49.280Z,30.80
2018-07-22T02:00:16.128Z,31.97
2018-07-22T02:02:43.135Z,32.93
2018-07-22T02:05:10.724Z,34.87
2018-07-22T02:07:37.661Z,33.73
2018-07-22T02:10:04.658Z,34.47
2018-07-22T02:12:31.508Z,37.70
2018-07-22T02:14:58.434Z,33.23
2018-07-22T02:17:25.289Z,32.30
2018-07-22T02:19:52.217Z,32.13
2018-07-22T02:22:19.072Z,33.33
2018-07-22T02:24:46.000Z,30.20
2018-07-22T02:27:12.884Z,33.70
2018-07-22T02:29:39.730Z,35.43
2018-07-22T02:32:06.673Z,31.87
2018-07-22T02:34:33.539Z,35.67
2018-07-22T02:37:00.491Z,33.63
2018-07-22T02:39:28.117Z,34.80
2018-07-22T02:41:55.026Z,36.23
2018-07-22T02:44:21.977Z,37.67
2018-07-22T02:46:48.850Z,38.73
2018-07-22T02:49:15.788Z,37.70
2018-07-22T02:51:42.689Z,35.00
2018-07-22T02:54:09.549Z,36.87
2018-07-22T02:56:36.482Z,35.67
2018-07-22T02:59:03.363Z,37.70
2018-07-22T03:01:30.309Z,33.23
2018-07-22T03:03:57.172Z,34.30
2018-07-22T03:06:24.013Z,37.43
2018-07-22T03:08:50.937Z,33.40
2018-07-22T03:11:18.132Z,33.93
2018-07-22T03:13:45.052Z,37.20
2018-07-22T03:16:11.980Z,38.57
2018-07-22T03:18:38.849Z,35.27
2018-07-22T03:21:05.831Z,30.23
2018-07-22T03:23:33.418Z,33.40
2018-07-22T03:26:00.363Z,32.57
2018-07-22T03:28:27.204Z,32.77
2018-07-22T03:30:54.077Z,32.60
2018-07-22T03:33:21.008Z,36.43
2018-07-22T03:35:47.865Z,33.27
2018-07-22T03:38:14.937Z,36.57
2018-07-22T03:40:41.807Z,37.00
2018-07-22T03:43:09.404Z,36.47
2018-07-22T03:45:36.336Z,36.70
2018-07-22T03:48:03.232Z,33.47
2018-07-22T03:50:30.196Z,33.50
2018-07-22T03:52:57.840Z,32.93
2018-07-22T03:55:24.683Z,35.50
2018-07-22T03:57:51.625Z,33.60
2018-07-22T04:00:18.553Z,32.93
2018-07-22T04:02:45.484Z,33.63
2018-07-22T04:05:12.355Z,31.63
2018-07-22T04:07:39.204Z,33.27
2018-07-22T04:10:06.176Z,36.97
2018-07-22T04:12:33.839Z,33.17
2018-07-22T04:15:01.533Z,29.77
2018-07-22T04:17:28.397Z,26.80
2018-07-22T04:19:55.245Z,29.27
2018-07-22T04:22:22.194Z,33.17
2018-07-22T04:24:49.041Z,33.50
2018-07-22T04:27:29.891Z,32.10
2018-07-22T04:29:57.613Z,33.50
2018-07-22T04:32:24.554Z,35.23
2018-07-22T04:34:51.411Z,36.07
2018-07-22T04:37:19.085Z,40.27
2018-07-22T04:39:46.672Z,37.17
2018-07-22T04:42:13.540Z,37.60
2018-07-22T04:44:40.481Z,37.17
2018-07-22T04:49:36.333Z,39.13
2018-07-22T04:52:04.071Z,37.90
2018-07-22T04:54:31.030Z,38.43
2018-07-22T04:56:57.912Z,37.43
2018-07-22T04:59:25.577Z,38.73
2018-07-22T05:01:52.717Z,33.50
2018-07-22T05:04:19.585Z,33.87
2018-07-22T05:06:46.497Z,32.33
2018-07-22T05:09:13.454Z,30.60
2018-07-22T05:11:40.348Z,29.50
2018-07-22T05:14:07.301Z,26.97
2018-07-22T05:16:34.172Z,29.87
2018-07-22T05:19:01.246Z,30.47
2018-07-22T05:21:28.851Z,32.47
2018-07-22T05:23:55.717Z,33.27
2018-07-22T05:26:22.644Z,27.47
2018-07-22T05:28:49.533Z,28.97
2018-07-22T05:31:16.455Z,29.97
2018-07-22T05:33:43.296Z,34.10
2018-07-22T05:36:10.432Z,31.77
2018-07-22T05:38:37.306Z,32.30
2018-07-22T05:41:04.213Z,30.80
2018-07-22T05:43:31.154Z,29.67
2018-07-22T05:45:58.000Z,27.77
2018-07-22T05:48:24.960Z,27.03
2018-07-22T05:50:51.837Z,25.70
2018-07-22T05:53:18.686Z,23.47
2018-07-22T05:55:45.644Z,23.20
2018-07-22T05:58:13.245Z,22.60
2018-07-22T06:00:40.343Z,20.77
2018-07-22T06:03:07.271Z,22.57
2018-07-22T06:05:34.138Z,24.63
2018-07-22T06:08:01.083Z,19.43
2018-07-22T06:10:28.112Z,22.03
2018-07-22T06:12:55.066Z,23.10
2018-07-22T06:15:22.100Z,21.43
2018-07-22T06:17:48.981Z,21.00
2018-07-22T06:20:16.590Z,20.90
2018-07-22T06:22:43.520Z,20.73
2018-07-22T06:25:10.372Z,19.07
2018-07-22T06:27:37.350Z,18.07
2018-07-22T06:30:04.312Z,18.70
2018-07-22T06:32:31.209Z,17.83
2018-07-22T06:34:58.142Z,22.00
2018-07-22T06:37:25.032Z,18.50
2018-07-22T06:39:52.020Z,14.53
2018-07-22T06:42:19.607Z,17.17
2018-07-22T06:44:46.452Z,16.20
2018-07-22T06:47:13.376Z,13.20
2018-07-22T06:49:41.029Z,14.63
2018-07-22T06:52:08.789Z,14.80
2018-07-22T06:54:36.383Z,15.63
2018-07-22T06:57:03.288Z,16.43
2018-07-22T06:59:30.216Z,15.37
2018-07-22T07:01:57.080Z,14.53
2018-07-22T07:04:24.067Z,14.17
2018-07-22T07:06:50.921Z,16.23
2018-07-22T07:09:17.758Z,15.37
2018-07-22T07:11:44.781Z,15.33
2018-07-22T07:14:12.373Z,17.20
2018-07-22T07:16:39.344Z,17.13
2018-07-22T07:19:06.227Z,17.20
2018-07-22T07:21:33.828Z,16.33
2018-07-22T07:24:00.775Z,16.57
2018-07-22T07:26:27.639Z,18.20
2018-07-22T07:28:54.589Z,19.10
2018-07-22T07:31:21.474Z,16.83
2018-07-22T07:33:49.400Z,19.70
2018-07-22T07:36:16.260Z,22.70
2018-07-22T07:38:43.126Z,23.30
2018-07-22T07:41:10.812Z,24.17
2018-07-22T07:43:37.664Z,22.10
2018-07-22T07:46:04.592Z,24.23
2018-07-22T07:48:31.459Z,23.00
2018-07-22T07:50:58.426Z,19.03
2018-07-22T07:53:25.289Z,32.40
2018-07-22T07:55:52.205Z,20.03
2018-07-22T07:58:19.151Z,18.70
2018-07-22T08:00:46.006Z,17.40
2018-07-22T08:03:13.057Z,17.87
2018-07-22T08:05:39.898Z,18.80
2018-07-22T08:08:06.761Z,19.13
2018-07-22T08:10:33.849Z,18.83
2018-07-22T08:13:01.470Z,19.23
2018-07-22T08:15:28.455Z,20.33
2018-07-22T08:17:56.041Z,19.47
2018-07-22T08:20:22.917Z,17.57
2018-07-22T08:22:49.859Z,21.57
2018-07-22T08:25:16.793Z,20.40
2018-07-22T08:27:43.777Z,19.23
2018-07-22T08:30:10.671Z,19.50
2018-07-22T08:32:37.644Z,18.10
2018-07-22T08:35:04.550Z,18.57
2018-07-22T08:37:31.409Z,22.33
2018-07-22T08:39:58.372Z,18.50
2018-07-22T08:42:25.214Z,19.93
2018-07-22T08:44:52.168Z,20.43
2018-07-22T08:47:19.084Z,20.17
2018-07-22T08:49:46.053Z,18.77
2018-07-22T08:52:12.916Z,19.80
2018-07-22T08:54:39.761Z,18.97
2018-07-22T08:57:06.737Z,16.03
2018-07-22T08:59:34.339Z,14.90
2018-07-22T09:02:01.449Z,15.07
2018-07-22T09:04:29.055Z,16.67
2018-07-22T09:06:55.912Z,15.43
2018-07-22T09:09:22.857Z,13.60
2018-07-22T09:11:50.002Z,15.60
2018-07-22T09:14:16.977Z,17.07
2018-07-22T09:16:43.849Z,15.37
2018-07-22T09:19:10.814Z,13.00
2018-07-22T09:21:37.750Z,11.50
2018-07-22T09:24:04.625Z,13.67
2018-07-22T09:26:31.639Z,12.20
2018-07-22T09:28:58.538Z,10.47
2018-07-22T09:31:25.518Z,14.00
2018-07-22T09:33:52.381Z,11.97
2018-07-22T09:36:19.301Z,13.13
2018-07-22T09:38:46.265Z,11.20
2018-07-22T09:41:13.848Z,12.67
2018-07-22T09:43:40.691Z,13.60
2018-07-22T09:46:07.681Z,14.60
2018-07-22T09:48:34.537Z,14.50
2018-07-22T09:51:02.179Z,12.40
2018-07-22T09:53:29.154Z,12.63
2018-07-22T09:55:56.780Z,14.33
2018-07-22T09:58:23.696Z,13.90
2018-07-22T10:00:50.910Z,11.03
2018-07-22T10:03:18.515Z,17.20
2018-07-22T10:05:45.410Z,13.87
2018-07-22T10:08:12.484Z,13.90
2018-07-22T10:10:39.360Z,15.50
2018-07-22T10:13:06.409Z,14.50
2018-07-22T10:15:33.322Z,14.40
2018-07-22T10:18:00.165Z,14.00
2018-07-22T10:20:27.112Z,14.80
2018-07-22T10:22:54.704Z,12.00
2018-07-22T10:25:21.680Z,13.77
2018-07-22T10:27:48.537Z,13.77
2018-07-22T10:30:15.413Z,12.87
2018-07-22T10:32:43.296Z,13.80
2018-07-22T10:35:10.182Z,13.30
2018-07-22T10:37:37.200Z,10.47
2018-07-22T10:40:04.076Z,13.50
2018-07-22T10:42:30.937Z,15.00
2018-07-22T10:44:57.877Z,12.70
2018-07-22T10:47:24.744Z,13.87
2018-07-22T10:49:52.460Z,11.70
2018-07-22T10:52:19.320Z,12.20
2018-07-22T10:54:46.176Z,13.87
2018-07-22T10:57:13.156Z,12.27
2018-07-22T10:59:40.113Z,12.70
2018-07-22T11:02:07.124Z,12.47
2018-07-22T11:04:33.990Z,12.57
2018-07-22T11:07:00.951Z,12.53
2018-07-22T11:09:27.941Z,12.80
2018-07-22T11:11:54.908Z,10.53
2018-07-22T11:14:21.960Z,13.00
2018-07-22T11:16:48.801Z,12.47
2018-07-22T11:19:15.683Z,12.30
2018-07-22T11:21:42.634Z,13.10
2018-07-22T11:24:09.544Z,13.30
2018-07-22T11:26:37.298Z,11.23
2018-07-22T11:29:04.183Z,13.27
2018-07-22T11:31:31.222Z,11.43
2018-07-22T11:33:58.096Z,12.90
2018-07-22T11:36:24.962Z,11.43
2018-07-22T11:38:51.907Z,13.33
2018-07-22T11:41:18.792Z,10.90
2018-07-22T11:43:46.558Z,12.57
2018-07-22T11:46:13.466Z,11.87
2018-07-22T11:48:40.321Z,11.87
2018-07-22T11:51:07.287Z,12.70
2018-07-22T11:53:34.146Z,12.63
2018-07-22T11:56:01.157Z,10.73
2018-07-22T11:58:28.030Z,12.50
2018-07-22T12:00:54.896Z,13.00
2018-07-22T12:03:21.858Z,12.73
2018-07-22T12:05:48.754Z,12.30
2018-07-22T12:08:15.757Z,12.17
2018-07-22T12:10:42.666Z,12.07
2018-07-22T12:13:09.760Z,11.73
2018-07-22T12:15:36.738Z,12.03
2018-07-22T12:18:03.623Z,11.30
2018-07-22T12:20:30.588Z,12.00
2018-07-22T12:22:57.455Z,12.17
2018-07-22T12:25:24.313Z,11.43
2018-07-22T12:27:51.313Z,10.47
2018-07-22T12:30:18.203Z,11.03
2018-07-22T12:32:45.171Z,10.13
2018-07-22T12:35:12.794Z,10.83
2018-07-22T12:37:39.667Z,10.13
2018-07-22T12:40:06.636Z,10.17
2018-07-22T12:42:33.520Z,10.60
2018-07-22T12:45:00.511Z,10.70
2018-07-22T12:47:28.103Z,10.00
2018-07-22T12:49:54.969Z,11.03
2018-07-22T12:52:21.925Z,10.27
2018-07-22T12:54:48.801Z,10.70
2018-07-22T12:57:15.772Z,10.57
2018-07-22T12:59:42.633Z,10.47
2018-07-22T13:02:09.510Z,11.97
2018-07-22T13:04:36.466Z,10.47
2018-07-22T13:07:03.417Z,12.30
2018-07-22T13:09:30.404Z,10.33
2018-07-22T13:11:57.280Z,10.97
2018-07-22T13:14:24.210Z,11.63
2018-07-22T13:16:51.157Z,12.70
2018-07-22T13:19:18.023Z,11.87
2018-07-22T13:21:45.021Z,11.57
2018-07-22T13:24:11.892Z,12.47
2018-07-22T13:26:38.765Z,11.10
2018-07-22T13:29:05.720Z,10.83
2018-07-22T13:31:32.625Z,11.20
2018-07-22T13:33:59.612Z,13.30
2018-07-22T13:36:26.488Z,17.40
2018-07-22T13:38:54.088Z,15.83
2018-07-22T13:41:21.064Z,14.10
2018-07-22T13:43:47.946Z,15.23
2018-07-22T13:46:15.756Z,14.50
2018-07-22T13:48:42.611Z,14.43
2018-07-22T13:51:09.492Z,14.70
2018-07-22T13:53:37.217Z,13.93
2018-07-22T13:56:04.114Z,13.03
2018-07-22T13:58:31.858Z,13.13
2018-07-22T14:00:59.474Z,12.10
2018-07-22T14:03:26.384Z,13.17
2018-07-22T14:05:54.101Z,13.70
2018-07-22T14:08:20.976Z,12.93
2018-07-22T14:10:47.950Z,13.07
2018-07-22T14:13:14.910Z,12.53
2018-07-22T14:15:41.855Z,12.87
2018-07-22T14:18:08.866Z,13.13
2018-07-22T14:20:36.503Z,12.27
2018-07-22T14:23:03.405Z,13.20
2018-07-22T14:25:30.380Z,11.37
2018-07-22T14:27:57.298Z,13.03
2018-07-22T14:30:24.329Z,15.93
2018-07-22T14:32:51.235Z,18.00
2018-07-22T14:35:18.186Z,16.87
2018-07-22T14:37:45.061Z,16.70
2018-07-22T14:40:12.849Z,15.40
2018-07-22T14:42:39.717Z,17.53
2018-07-22T14:45:06.580Z,21.33
2018-07-22T14:47:33.550Z,15.73
2018-07-22T14:50:01.174Z,15.20
2018-07-22T14:52:28.107Z,16.70
2018-07-22T14:54:54.994Z,15.00
2018-07-22T14:57:21.992Z,14.00
2018-07-22T14:59:48.900Z,14.77
2018-07-22T15:02:16.551Z,15.77
2018-07-22T15:04:43.500Z,15.93
2018-07-22T15:07:11.119Z,15.60
2018-07-22T15:09:38.100Z,15.60
2018-07-22T15:12:05.098Z,15.77
2018-07-22T15:14:32.152Z,15.83
2018-07-22T15:16:59.181Z,15.00
2018-07-22T15:19:26.048Z,13.37
2018-07-22T15:21:53.063Z,12.60
2018-07-22T15:24:19.941Z,14.20
2018-07-22T15:26:46.845Z,13.50
2018-07-22T15:29:14.616Z,13.97
2018-07-22T15:31:42.016Z,11.20
2018-07-22T15:34:09.209Z,13.00
2018-07-22T15:36:36.841Z,13.07
2018-07-22T15:39:03.860Z,12.93
2018-07-22T15:41:30.840Z,11.93
2018-07-22T15:43:57.705Z,11.40
2018-07-22T15:46:24.703Z,13.63
2018-07-22T15:48:51.586Z,12.63
2018-07-22T15:51:18.492Z,14.57
2018-07-22T15:53:45.455Z,16.43
2018-07-22T15:56:12.318Z,15.03
2018-07-22T15:58:39.304Z,14.93
2018-07-22T16:01:06.959Z,14.43
2018-07-22T16:03:33.991Z,15.50
2018-07-22T16:06:00.844Z,14.77
2018-07-22T16:08:28.464Z,14.80
2018-07-22T16:10:55.412Z,15.27
2018-07-22T16:13:22.458Z,14.23
2018-07-22T16:15:49.473Z,13.53
2018-07-22T16:18:16.353Z,13.37
2018-07-22T16:20:43.231Z,13.70
2018-07-22T16:23:11.033Z,13.80
2018-07-22T16:25:37.933Z,13.27
2018-07-22T16:28:04.945Z,14.83
2018-07-22T16:30:31.833Z,15.13
2018-07-22T16:32:58.702Z,13.20
2018-07-22T16:35:25.676Z,14.57
2018-07-22T16:37:52.553Z,13.40
2018-07-22T16:40:19.565Z,13.47
2018-07-22T16:42:46.450Z,12.83
2018-07-22T16:45:13.370Z,12.90
2018-07-22T16:47:40.393Z,13.67
2018-07-22T16:50:07.281Z,13.47
2018-07-22T16:52:34.258Z,14.37
2018-07-22T16:55:01.894Z,14.40
2018-07-22T16:57:28.812Z,13.93
2018-07-22T16:59:55.821Z,15.83
2018-07-22T17:02:22.692Z,15.60
2018-07-22T17:04:49.592Z,15.20
2018-07-22T17:07:16.568Z,14.27
2018-07-22T17:09:43.445Z,15.37
2018-07-22T17:12:10.416Z,13.23
2018-07-22T17:14:37.376Z,13.30
2018-07-22T17:17:04.276Z,14.40
2018-07-22T17:19:31.236Z,14.57
2018-07-22T17:21:58.105Z,14.40
2018-07-22T17:24:25.859Z,14.10
2018-07-22T17:26:52.773Z,14.20
2018-07-22T17:29:19.779Z,14.10
2018-07-22T17:31:46.663Z,14.47
2018-07-22T17:34:13.660Z,12.70
2018-07-22T17:36:40.545Z,15.00
2018-07-22T17:39:07.425Z,16.67
2018-07-22T17:41:34.433Z,15.87
2018-07-22T17:44:01.361Z,15.90
2018-07-22T17:46:28.252Z,14.63
2018-07-22T17:48:55.253Z,14.17
2018-07-22T17:51:22.924Z,14.20
2018-07-22T17:53:49.891Z,15.23
2018-07-22T17:56:16.792Z,16.50
2018-07-22T17:58:44.589Z,15.43
2018-07-22T18:01:11.524Z,14.40
2018-07-22T18:03:39.142Z,14.43
2018-07-22T18:06:06.141Z,14.23
2018-07-22T18:08:33.034Z,14.50
2018-07-22T18:11:00.062Z,13.50
2018-07-22T18:13:27.120Z,14.00
2018-07-22T18:15:54.125Z,13.37
2018-07-22T18:18:21.117Z,14.07
2018-07-22T18:20:48.019Z,15.30
2018-07-22T18:23:16.165Z,14.53
2018-07-22T18:25:43.090Z,15.70
2018-07-22T18:28:09.961Z,16.73
2018-07-22T18:30:36.960Z,16.40
2018-07-22T18:33:03.964Z,16.53
2018-07-22T18:35:31.682Z,15.47
2018-07-22T18:37:58.561Z,17.10
2018-07-22T18:40:25.442Z,14.83
2018-07-22T18:42:52.405Z,13.90
2018-07-22T18:45:19.293Z,13.93
2018-07-22T18:47:47.001Z,14.73
2018-07-22T18:50:13.933Z,15.57
2018-07-22T18:52:40.909Z,13.73
2018-07-22T18:55:07.791Z,14.67
2018-07-22T18:57:34.719Z,13.47
2018-07-22T19:00:01.831Z,14.90
2018-07-22T19:02:28.712Z,14.07
2018-07-22T19:04:55.700Z,14.43
2018-07-22T19:07:22.713Z,13.70
2018-07-22T19:09:49.613Z,13.93
2018-07-22T19:12:16.744Z,13.70
2018-07-22T19:14:44.475Z,13.87
2018-07-22T19:17:11.474Z,14.60
2018-07-22T19:19:38.395Z,14.70
2018-07-22T19:22:05.323Z,13.27
2018-07-22T19:24:32.293Z,15.67
2018-07-22T19:26:59.906Z,14.80
2018-07-22T19:29:26.896Z,14.20
2018-07-22T19:31:54.534Z,15.17
2018-07-22T19:34:21.407Z,13.50
2018-07-22T19:36:48.379Z,13.27
2018-07-22T19:39:15.241Z,13.03
2018-07-22T19:41:42.085Z,14.53
2018-07-22T19:44:09.096Z,16.53
2018-07-22T19:46:36.695Z,15.33
2018-07-22T19:49:03.653Z,16.67
2018-07-22T19:51:30.511Z,15.90
2018-07-22T19:53:57.371Z,16.17
2018-07-22T19:56:24.368Z,15.30
2018-07-22T19:58:51.236Z,16.57
2018-07-22T20:01:18.186Z,16.43
2018-07-22T20:03:45.070Z,16.10
2018-07-22T20:06:12.815Z,16.10
2018-07-22T20:08:40.432Z,16.70
2018-07-22T20:11:07.341Z,16.23
2018-07-22T20:13:35.037Z,18.33
2018-07-22T20:16:01.988Z,16.50
2018-07-22T20:18:28.969Z,17.47
2018-07-22T20:20:55.844Z,18.60
2018-07-22T20:23:23.445Z,17.63
2018-07-22T20:25:50.405Z,17.20
2018-07-22T20:28:17.256Z,17.03
2018-07-22T20:30:44.205Z,16.40
2018-07-22T20:33:11.056Z,16.53
2018-07-22T20:35:37.918Z,15.77
2018-07-22T20:38:04.888Z,16.87
2018-07-22T20:40:31.826Z,18.20
2018-07-22T20:42:59.537Z,17.73
2018-07-22T20:45:26.414Z,17.90
2018-07-22T20:47:54.037Z,15.37
2018-07-22T20:50:20.976Z,18.83
2018-07-22T20:52:47.828Z,16.27
2018-07-22T20:55:14.782Z,16.13
2018-07-22T20:57:41.628Z,17.23
2018-07-22T21:00:08.560Z,17.57
2018-07-22T21:02:35.441Z,17.03
2018-07-22T21:05:02.442Z,18.27
2018-07-22T21:07:29.287Z,17.20
2018-07-22T21:09:56.156Z,17.20
2018-07-22T21:12:35.429Z,17.10
2018-07-22T21:15:03.238Z,17.03
2018-07-22T21:17:30.280Z,17.03
2018-07-22T21:19:57.128Z,16.90
2018-07-22T21:22:23.972Z,16.80
2018-07-22T21:24:50.906Z,18.47
2018-07-22T21:27:17.758Z,17.70
2018-07-22T21:29:44.697Z,16.40
2018-07-22T21:32:11.548Z,16.93
2018-07-22T21:34:38.389Z,17.57
2018-07-22T21:37:05.340Z,17.73
2018-07-22T21:39:32.196Z,17.83
2018-07-22T21:41:59.202Z,18.70
2018-07-22T21:44:26.796Z,17.57
2018-07-22T21:46:53.788Z,18.47
2018-07-22T21:49:20.659Z,20.03
2018-07-22T21:51:48.384Z,19.17
2018-07-22T21:54:15.225Z,17.77
2018-07-22T21:56:42.096Z,19.67
2018-07-22T21:59:09.032Z,17.70
2018-07-22T22:01:35.913Z,16.57
2018-07-22T22:04:02.901Z,16.97
2018-07-22T22:06:29.762Z,18.33
2018-07-22T22:08:56.612Z,18.20
2018-07-22T22:11:23.560Z,19.07
2018-07-22T22:13:50.440Z,17.67
2018-07-22T22:16:17.473Z,17.27
2018-07-22T22:18:45.273Z,17.30
2018-07-22T22:21:12.129Z,19.03
2018-07-22T22:23:38.970Z,20.00
2018-07-22T22:26:05.919Z,19.60
2018-07-22T22:28:32.796Z,18.93
2018-07-22T22:30:59.730Z,17.97
2018-07-22T22:33:26.594Z,22.83
2018-07-22T22:35:53.556Z,22.13
2018-07-22T22:38:21.236Z,16.80
2018-07-22T22:40:48.900Z,17.30
2018-07-22T22:43:15.764Z,18.83
2018-07-22T22:45:42.720Z,17.43
2018-07-22T22:48:09.572Z,18.60
2018-07-22T22:50:36.463Z,19.67
2018-07-22T22:53:03.392Z,19.57
2018-07-22T22:55:31.054Z,18.00
2018-07-22T22:57:58.089Z,19.00
2018-07-22T23:00:24.993Z,18.60
2018-07-22T23:02:51.838Z,19.50
2018-07-22T23:05:18.780Z,16.40
2018-07-22T23:07:45.661Z,17.47
2018-07-22T23:10:12.633Z,18.27
2018-07-22T23:12:40.236Z,18.23
2018-07-22T23:15:07.216Z,16.40
2018-07-22T23:17:34.157Z,16.93
2018-07-22T23:20:01.012Z,16.43
2018-07-22T23:22:27.973Z,17.27
2018-07-22T23:24:55.580Z,16.40
2018-07-22T23:27:22.516Z,18.83
2018-07-22T23:29:49.365Z,17.90
2018-07-22T23:32:16.238Z,19.57
2018-07-22T23:34:43.205Z,18.13
2018-07-22T23:37:10.061Z,17.53
2018-07-22T23:39:37.149Z,18.37
2018-07-22T23:42:04.074Z,17.80
2018-07-22T23:44:30.952Z,17.07
2018-07-22T23:46:57.889Z,17.17
2018-07-22T23:49:24.732Z,18.23
2018-07-22T23:51:51.720Z,17.87
2018-07-22T23:54:18.564Z,17.13
2018-07-22T23:56:45.406Z,18.60
2018-07-22T23:59:12.338Z,18.90
